createdAt,value
2023-03-08T00:01:26.676Z,68.68
2023-03-08T00:03:57.270Z,69.10
2023-03-08T00:06:25.604Z,69.20
2023-03-08T00:08:58.208Z,69.02
2023-03-08T00:11:28.381Z,69.06
2023-03-08T00:13:57.068Z,68.88
2023-03-08T00:16:25.617Z,68.97
2023-03-08T00:18:53.927Z,68.83
2023-03-08T00:21:22.073Z,68.55
2023-03-08T00:23:54.311Z,68.63
2023-03-08T00:26:22.773Z,68.44
2023-03-08T00:28:51.571Z,68.47
2023-03-08T00:31:22.315Z,68.30
2023-03-08T00:33:54.832Z,68.48
2023-03-08T00:36:25.982Z,68.65
2023-03-08T00:38:54.104Z,68.76
2023-03-08T00:41:22.346Z,68.92
2023-03-08T00:43:50.838Z,68.81
2023-03-08T00:46:18.942Z,68.59
2023-03-08T00:48:47.873Z,68.50
2023-03-08T00:51:17.820Z,68.38
2023-03-08T00:53:46.471Z,68.49
2023-03-08T00:56:14.606Z,68.40
2023-03-08T00:58:42.815Z,68.28
2023-03-08T01:01:16.916Z,67.88
2023-03-08T01:03:45.808Z,67.83
2023-03-08T01:06:14.934Z,67.68
2023-03-08T01:08:44.933Z,67.84
2023-03-08T01:11:24.582Z,67.73
2023-03-08T01:13:54.137Z,67.67
2023-03-08T01:16:28.033Z,67.71
2023-03-08T01:18:57.604Z,67.55
2023-03-08T01:21:26.142Z,67.31
2023-03-08T01:23:54.477Z,67.64
2023-03-08T01:26:24.371Z,67.55
2023-03-08T01:28:56.635Z,67.87
2023-03-08T01:31:26.252Z,67.79
2023-03-08T01:33:56.888Z,68.06
2023-03-08T01:36:26.001Z,67.99
2023-03-08T01:38:55.702Z,68.22
2023-03-08T01:41:25.890Z,68.33
2023-03-08T01:43:53.959Z,68.38
2023-03-08T01:46:36.202Z,68.41
2023-03-08T01:49:31.854Z,68.50
2023-03-08T01:52:04.867Z,68.67
2023-03-08T01:54:46.337Z,68.65
2023-03-08T01:57:20.762Z,68.69
2023-03-08T01:59:51.353Z,69.08
2023-03-08T02:02:23.084Z,69.03
2023-03-08T02:04:51.175Z,69.28
2023-03-08T02:07:21.463Z,69.48
2023-03-08T02:09:51.239Z,69.45
2023-03-08T02:12:19.278Z,69.68
2023-03-08T02:14:47.747Z,69.85
2023-03-08T02:17:15.947Z,69.90
2023-03-08T02:19:55.894Z,69.98
2023-03-08T02:22:24.548Z,70.07
2023-03-08T02:24:52.931Z,70.12
2023-03-08T02:27:23.577Z,70.24
2023-03-08T02:29:52.219Z,70.32
2023-03-08T02:32:21.861Z,70.76
2023-03-08T02:34:50.127Z,70.84
2023-03-08T02:37:18.177Z,70.91
2023-03-08T02:39:47.721Z,70.97
2023-03-08T02:42:16.264Z,71.28
2023-03-08T02:44:44.327Z,71.42
2023-03-08T02:47:12.884Z,71.38
2023-03-08T02:49:40.929Z,71.34
2023-03-08T02:52:10.003Z,71.51
2023-03-08T02:54:38.139Z,71.77
2023-03-08T02:57:07.652Z,71.89
2023-03-08T02:59:36.467Z,72.22
2023-03-08T03:02:08.300Z,71.97
2023-03-08T03:04:37.695Z,72.18
2023-03-08T03:07:05.800Z,72.40
2023-03-08T03:09:36.004Z,72.57
2023-03-08T03:12:04.516Z,72.57
2023-03-08T03:14:37.412Z,72.78
2023-03-08T03:17:05.508Z,72.65
2023-03-08T03:19:33.730Z,72.67
2023-03-08T03:22:07.802Z,72.82
2023-03-08T03:24:37.652Z,72.87
2023-03-08T03:27:07.312Z,73.29
2023-03-08T03:29:37.850Z,73.39
2023-03-08T03:32:14.996Z,73.48
2023-03-08T03:34:44.439Z,73.47
2023-03-08T03:37:13.086Z,73.25
2023-03-08T03:39:41.819Z,73.43
2023-03-08T03:42:11.964Z,73.33
2023-03-08T03:44:43.750Z,73.23
2023-03-08T03:47:15.199Z,73.39
2023-03-08T03:49:43.617Z,73.46
2023-03-08T03:52:13.142Z,73.14
2023-03-08T03:54:45.980Z,73.51
2023-03-08T03:57:14.226Z,73.29
2023-03-08T03:59:43.019Z,73.33
2023-03-08T04:02:14.625Z,73.09
2023-03-08T04:04:49.738Z,73.23
2023-03-08T04:07:19.062Z,73.36
2023-03-08T04:09:54.654Z,73.37
2023-03-08T04:12:22.715Z,72.98
2023-03-08T04:14:51.310Z,72.88
2023-03-08T04:17:20.703Z,72.84
2023-03-08T04:19:52.779Z,72.95
2023-03-08T04:22:26.174Z,72.89
2023-03-08T04:24:58.937Z,72.94
2023-03-08T04:27:32.847Z,72.89
2023-03-08T04:30:02.293Z,72.91
2023-03-08T04:32:34.504Z,72.93
2023-03-08T04:35:03.121Z,72.70
2023-03-08T04:37:31.939Z,72.37
2023-03-08T04:40:09.405Z,72.99
2023-03-08T04:42:43.378Z,73.09
2023-03-08T04:45:11.991Z,73.31
2023-03-08T04:47:40.853Z,73.83
2023-03-08T04:50:09.931Z,73.51
2023-03-08T04:52:38.078Z,73.76
2023-03-08T04:55:06.699Z,73.71
2023-03-08T04:57:35.537Z,73.97
2023-03-08T05:00:05.930Z,73.86
2023-03-08T05:02:37.330Z,73.79
2023-03-08T05:05:07.062Z,73.78
2023-03-08T05:07:38.750Z,73.67
2023-03-08T05:10:07.409Z,73.67
2023-03-08T05:12:35.878Z,73.59
2023-03-08T05:15:05.200Z,73.82
2023-03-08T05:17:33.595Z,73.73
2023-03-08T05:20:02.124Z,73.68
2023-03-08T05:22:48.097Z,73.57
2023-03-08T05:25:23.573Z,73.88
2023-03-08T05:27:52.362Z,73.78
2023-03-08T05:30:21.580Z,74.19
2023-03-08T05:32:50.391Z,73.97
2023-03-08T05:35:18.533Z,74.13
2023-03-08T05:37:47.531Z,73.98
2023-03-08T05:40:16.570Z,73.93
2023-03-08T05:42:45.101Z,74.32
2023-03-08T05:45:14.770Z,74.12
2023-03-08T05:47:43.077Z,74.16
2023-03-08T05:50:12.345Z,74.34
2023-03-08T05:52:43.042Z,74.40
2023-03-08T05:55:14.241Z,74.46
2023-03-08T05:57:42.662Z,74.69
2023-03-08T06:00:11.879Z,74.41
2023-03-08T06:02:52.122Z,74.60
2023-03-08T06:05:20.917Z,74.58
2023-03-08T06:07:49.239Z,74.63
2023-03-08T06:10:17.696Z,74.58
2023-03-08T06:12:49.087Z,74.76
2023-03-08T06:15:17.837Z,74.59
2023-03-08T06:17:48.962Z,74.93
2023-03-08T06:20:19.612Z,74.81
2023-03-08T06:22:49.968Z,75.13
2023-03-08T06:25:19.906Z,75.00
2023-03-08T06:27:49.364Z,75.20
2023-03-08T06:30:35.410Z,74.90
2023-03-08T06:33:05.652Z,75.24
2023-03-08T06:35:34.002Z,74.94
2023-03-08T06:38:03.127Z,75.54
2023-03-08T06:40:32.831Z,75.22
2023-03-08T06:43:01.645Z,74.49
2023-03-08T06:45:29.786Z,74.49
2023-03-08T06:47:58.269Z,74.71
2023-03-08T06:50:26.812Z,74.71
2023-03-08T06:52:55.132Z,74.72
2023-03-08T06:55:35.871Z,74.85
2023-03-08T06:58:04.298Z,75.00
2023-03-08T07:00:35.119Z,75.37
2023-03-08T07:03:03.310Z,75.35
2023-03-08T07:05:31.677Z,75.45
2023-03-08T07:08:01.573Z,74.72
2023-03-08T07:10:30.252Z,74.70
2023-03-08T07:13:00.700Z,74.58
2023-03-08T07:15:28.811Z,74.47
2023-03-08T07:17:58.708Z,74.35
2023-03-08T07:20:27.698Z,74.39
2023-03-08T07:22:55.984Z,74.52
2023-03-08T07:25:24.127Z,74.52
2023-03-08T07:28:00.228Z,74.15
2023-03-08T07:30:28.674Z,73.90
2023-03-08T07:32:56.948Z,73.44
2023-03-08T07:35:27.776Z,73.32
2023-03-08T07:37:56.255Z,73.23
2023-03-08T07:40:24.400Z,72.86
2023-03-08T07:42:52.332Z,72.62
2023-03-08T07:45:29.910Z,72.56
2023-03-08T07:47:58.706Z,72.50
2023-03-08T07:50:26.865Z,72.80
2023-03-08T07:52:56.364Z,72.67
2023-03-08T07:55:25.676Z,72.47
2023-03-08T07:57:56.887Z,72.38
2023-03-08T08:00:25.710Z,72.02
2023-03-08T08:02:54.199Z,71.62
2023-03-08T08:05:23.272Z,71.04
2023-03-08T08:07:51.256Z,71.01
2023-03-08T08:10:21.457Z,71.20
2023-03-08T08:12:50.638Z,71.63
2023-03-08T08:15:19.261Z,72.09
2023-03-08T08:17:52.575Z,71.57
2023-03-08T08:20:21.220Z,71.23
2023-03-08T08:22:52.102Z,71.37
2023-03-08T08:25:21.156Z,71.24
2023-03-08T08:27:50.749Z,70.90
2023-03-08T08:30:19.446Z,70.40
2023-03-08T08:32:47.638Z,70.50
2023-03-08T08:35:16.406Z,70.10
2023-03-08T08:37:44.879Z,69.48
2023-03-08T08:40:13.246Z,69.21
2023-03-08T08:42:41.454Z,68.63
2023-03-08T08:45:10.188Z,68.43
2023-03-08T08:47:38.348Z,68.57
2023-03-08T08:50:07.089Z,68.97
2023-03-08T08:52:35.328Z,68.51
2023-03-08T08:55:06.633Z,68.09
2023-03-08T08:57:35.372Z,68.43
2023-03-08T09:00:08.277Z,68.55
2023-03-08T09:02:36.826Z,68.54
2023-03-08T09:05:06.141Z,68.70
2023-03-08T09:07:34.338Z,69.14
2023-03-08T09:10:02.680Z,69.10
2023-03-08T09:12:31.201Z,69.11
2023-03-08T09:14:59.887Z,69.10
2023-03-08T09:17:28.151Z,68.86
2023-03-08T09:19:56.625Z,68.29
2023-03-08T09:22:25.533Z,68.29
2023-03-08T09:24:53.508Z,68.36
2023-03-08T09:27:21.617Z,67.93
2023-03-08T09:29:50.676Z,67.65
2023-03-08T09:32:18.873Z,67.29
2023-03-08T09:34:47.519Z,67.38
2023-03-08T09:37:15.718Z,67.34
2023-03-08T09:39:44.983Z,67.07
2023-03-08T09:42:25.172Z,66.76
2023-03-08T09:45:14.447Z,66.09
2023-03-08T09:48:11.147Z,66.03
2023-03-08T09:50:59.349Z,65.76
2023-03-08T09:53:38.511Z,65.62
2023-03-08T09:56:12.353Z,65.03
2023-03-08T09:58:55.933Z,64.53
2023-03-08T10:01:38.543Z,64.55
2023-03-08T10:04:29.097Z,64.17
2023-03-08T10:07:17.573Z,64.08
2023-03-08T10:09:53.074Z,63.81
2023-03-08T10:12:49.982Z,63.50
2023-03-08T10:15:25.066Z,63.34
2023-03-08T10:18:21.233Z,63.18
2023-03-08T10:20:49.723Z,63.37
2023-03-08T10:23:21.689Z,63.29
2023-03-08T10:25:50.441Z,63.30
2023-03-08T10:28:20.854Z,62.58
2023-03-08T10:31:28.156Z,62.06
2023-03-08T10:34:03.999Z,61.53
2023-03-08T10:36:34.888Z,61.36
2023-03-08T10:39:09.759Z,61.28
2023-03-08T10:41:43.552Z,61.12
2023-03-08T10:44:14.378Z,60.78
2023-03-08T10:46:47.666Z,60.39
2023-03-08T10:49:17.557Z,60.48
2023-03-08T10:52:01.223Z,60.13
2023-03-08T10:54:30.061Z,60.01
2023-03-08T10:56:59.607Z,59.94
2023-03-08T10:59:32.656Z,60.09
2023-03-08T11:02:13.419Z,59.80
2023-03-08T11:04:53.615Z,58.95
2023-03-08T11:07:29.431Z,58.96
2023-03-08T11:10:13.045Z,58.72
2023-03-08T11:12:41.709Z,58.31
2023-03-08T11:15:16.562Z,58.51
2023-03-08T11:17:56.436Z,58.55
2023-03-08T11:21:07.878Z,58.49
2023-03-08T11:24:08.800Z,58.31
2023-03-08T11:27:14.769Z,58.18
2023-03-08T11:29:52.530Z,57.25
2023-03-08T11:32:45.078Z,57.37
2023-03-08T11:35:28.122Z,57.42
2023-03-08T11:38:00.153Z,56.61
2023-03-08T11:40:40.349Z,56.60
2023-03-08T11:43:30.579Z,56.85
2023-03-08T11:46:23.239Z,56.90
2023-03-08T11:49:01.255Z,57.00
2023-03-08T11:51:51.593Z,56.81
2023-03-08T11:54:38.550Z,56.84
2023-03-08T11:57:12.581Z,56.97
2023-03-08T11:59:50.640Z,57.20
2023-03-08T12:02:20.988Z,57.16
2023-03-08T12:05:12.440Z,57.45
2023-03-08T12:07:48.597Z,57.70
2023-03-08T12:10:51.085Z,57.34
2023-03-08T12:13:29.742Z,57.18
2023-03-08T12:16:04.736Z,57.21
2023-03-08T12:18:34.511Z,57.38
2023-03-08T12:21:35.756Z,57.31
2023-03-08T12:24:32.453Z,57.48
2023-03-08T12:27:06.609Z,57.98
2023-03-08T12:30:15.594Z,58.28
2023-03-08T12:32:43.869Z,58.44
2023-03-08T12:35:22.327Z,58.68
2023-03-08T12:37:59.561Z,58.63
2023-03-08T12:40:44.363Z,58.17
2023-03-08T12:43:34.299Z,57.91
2023-03-08T12:46:06.668Z,57.48
2023-03-08T12:48:40.562Z,57.49
2023-03-08T12:51:14.674Z,57.56
2023-03-08T12:53:44.162Z,56.96
2023-03-08T12:56:12.488Z,56.58
2023-03-08T12:58:56.572Z,55.67
2023-03-08T13:01:24.823Z,55.31
2023-03-08T13:03:54.208Z,55.31
2023-03-08T13:06:22.876Z,55.03
2023-03-08T13:08:54.378Z,55.01
2023-03-08T13:11:26.522Z,54.68
2023-03-08T13:13:58.653Z,54.36
2023-03-08T13:16:30.112Z,54.08
2023-03-08T13:19:21.651Z,53.74
2023-03-08T13:22:16.335Z,53.69
2023-03-08T13:24:49.844Z,53.55
2023-03-08T13:27:47.797Z,53.59
2023-03-08T13:30:36.992Z,53.47
2023-03-08T13:33:13.438Z,53.53
2023-03-08T13:35:41.442Z,53.65
2023-03-08T13:38:20.326Z,53.78
2023-03-08T13:40:52.793Z,54.16
2023-03-08T13:43:25.056Z,54.27
2023-03-08T13:45:54.947Z,54.18
2023-03-08T13:48:23.128Z,54.22
2023-03-08T13:50:51.842Z,54.48
2023-03-08T13:53:22.463Z,54.29
2023-03-08T13:55:57.196Z,54.00
2023-03-08T13:58:35.696Z,54.18
2023-03-08T14:01:18.979Z,54.25
2023-03-08T14:03:47.560Z,54.20
2023-03-08T14:06:33.761Z,54.26
2023-03-08T14:09:03.930Z,54.11
2023-03-08T14:11:34.139Z,53.87
2023-03-08T14:14:07.528Z,54.08
2023-03-08T14:16:37.751Z,54.09
2023-03-08T14:19:15.031Z,54.10
2023-03-08T14:21:55.408Z,54.01
2023-03-08T14:24:34.625Z,53.21
2023-03-08T14:27:30.644Z,52.82
2023-03-08T14:30:04.088Z,52.72
2023-03-08T14:32:32.618Z,52.95
2023-03-08T14:35:25.248Z,52.92
2023-03-08T14:37:56.979Z,52.42
2023-03-08T14:40:31.088Z,52.30
2023-03-08T14:43:02.417Z,52.17
2023-03-08T14:45:40.484Z,52.02
2023-03-08T14:48:25.139Z,52.05
2023-03-08T14:50:55.823Z,52.23
2023-03-08T14:53:31.173Z,52.27
2023-03-08T14:56:00.474Z,52.19
2023-03-08T14:58:31.142Z,51.95
2023-03-08T15:01:01.386Z,52.00
2023-03-08T15:03:30.353Z,51.92
2023-03-08T15:05:59.248Z,51.90
2023-03-08T15:08:28.862Z,51.88
2023-03-08T15:10:57.185Z,52.05
2023-03-08T15:13:27.244Z,52.28
2023-03-08T15:15:55.870Z,52.37
2023-03-08T15:18:24.982Z,52.73
2023-03-08T15:20:53.157Z,52.91
2023-03-08T15:23:26.223Z,53.04
2023-03-08T15:25:54.639Z,53.08
2023-03-08T15:28:23.718Z,53.16
2023-03-08T15:30:52.899Z,53.26
2023-03-08T15:33:21.686Z,53.27
2023-03-08T15:35:50.573Z,53.29
2023-03-08T15:38:19.008Z,53.33
2023-03-08T15:40:52.282Z,53.36
2023-03-08T15:43:20.878Z,53.41
2023-03-08T15:45:48.865Z,53.44
2023-03-08T15:48:18.243Z,53.22
2023-03-08T15:50:46.678Z,52.94
2023-03-08T15:53:29.665Z,52.78
2023-03-08T15:56:03.160Z,52.76
2023-03-08T15:58:31.767Z,52.84
2023-03-08T16:01:00.589Z,52.99
2023-03-08T16:03:31.200Z,53.17
2023-03-08T16:05:59.732Z,53.26
2023-03-08T16:08:29.445Z,53.27
2023-03-08T16:11:03.791Z,53.56
2023-03-08T16:13:34.548Z,53.71
2023-03-08T16:16:03.568Z,53.99
2023-03-08T16:18:32.241Z,54.03
2023-03-08T16:21:00.732Z,54.06
2023-03-08T16:23:29.110Z,54.21
2023-03-08T16:26:14.777Z,54.33
2023-03-08T16:28:46.569Z,54.27
2023-03-08T16:31:15.105Z,54.30
2023-03-08T16:33:43.634Z,54.45
2023-03-08T16:36:12.449Z,54.98
2023-03-08T16:38:43.404Z,55.16
2023-03-08T16:41:13.493Z,55.33
2023-03-08T16:43:48.300Z,55.27
2023-03-08T16:46:19.156Z,55.15
2023-03-08T16:48:49.761Z,55.18
2023-03-08T16:51:20.386Z,55.12
2023-03-08T16:53:49.077Z,55.14
2023-03-08T16:56:26.870Z,55.15
2023-03-08T16:58:56.985Z,55.25
2023-03-08T17:01:26.749Z,55.23
2023-03-08T17:03:56.101Z,55.24
2023-03-08T17:06:27.036Z,55.29
2023-03-08T17:08:57.488Z,55.28
2023-03-08T17:11:27.486Z,55.28
2023-03-08T17:13:58.652Z,55.33
2023-03-08T17:16:28.356Z,55.35
2023-03-08T17:18:56.635Z,55.39
2023-03-08T17:21:24.784Z,55.54
2023-03-08T17:23:53.608Z,55.74
2023-03-08T17:26:22.535Z,56.06
2023-03-08T17:28:52.177Z,56.26
2023-03-08T17:31:21.614Z,56.38
2023-03-08T17:33:50.759Z,56.39
2023-03-08T17:36:22.506Z,56.60
2023-03-08T17:38:55.538Z,56.54
2023-03-08T17:41:25.901Z,56.48
2023-03-08T17:43:54.155Z,56.42
2023-03-08T17:46:23.699Z,56.41
2023-03-08T17:48:53.303Z,56.61
2023-03-08T17:51:24.378Z,56.77
2023-03-08T17:53:52.736Z,56.82
2023-03-08T17:56:22.756Z,56.60
2023-03-08T17:58:54.588Z,56.48
2023-03-08T18:01:24.399Z,56.53
2023-03-08T18:03:53.059Z,56.32
2023-03-08T18:06:38.011Z,56.23
2023-03-08T18:09:10.674Z,56.03
2023-03-08T18:11:38.824Z,55.79
2023-03-08T18:14:16.837Z,55.84
2023-03-08T18:16:45.038Z,55.83
2023-03-08T18:19:15.658Z,56.18
2023-03-08T18:21:43.827Z,57.70
2023-03-08T18:24:12.142Z,58.98
2023-03-08T18:26:41.400Z,60.00
2023-03-08T18:29:09.516Z,60.72
2023-03-08T18:31:40.329Z,61.03
2023-03-08T18:34:09.291Z,61.81
2023-03-08T18:36:37.591Z,62.44
2023-03-08T18:39:07.060Z,62.60
2023-03-08T18:41:36.149Z,62.82
2023-03-08T18:44:10.671Z,63.10
2023-03-08T18:46:39.524Z,63.28
2023-03-08T18:49:11.143Z,63.55
2023-03-08T18:51:40.268Z,63.68
2023-03-08T18:54:20.494Z,64.09
2023-03-08T18:56:53.903Z,64.15
2023-03-08T18:59:22.151Z,64.19
2023-03-08T19:01:52.257Z,64.32
2023-03-08T19:04:20.436Z,64.47
2023-03-08T19:06:48.403Z,64.37
2023-03-08T19:09:17.255Z,64.26
2023-03-08T19:11:45.986Z,64.29
2023-03-08T19:14:14.292Z,64.34
2023-03-08T19:16:44.732Z,64.26
2023-03-08T19:19:14.662Z,64.33
2023-03-08T19:21:46.827Z,64.35
2023-03-08T19:24:16.845Z,64.57
2023-03-08T19:26:47.551Z,64.56
2023-03-08T19:29:29.712Z,64.56
2023-03-08T19:31:59.769Z,64.63
2023-03-08T19:34:34.333Z,64.81
2023-03-08T19:37:05.207Z,65.05
2023-03-08T19:39:35.058Z,65.17
2023-03-08T19:42:05.909Z,65.46
2023-03-08T19:44:34.347Z,65.77
2023-03-08T19:47:04.710Z,65.98
2023-03-08T19:49:35.937Z,66.20
2023-03-08T19:52:05.150Z,66.47
2023-03-08T19:54:34.123Z,66.70
2023-03-08T19:57:03.814Z,66.98
2023-03-08T19:59:38.663Z,67.22
2023-03-08T20:02:08.833Z,67.29
2023-03-08T20:04:37.122Z,67.49
2023-03-08T20:07:07.250Z,67.62
2023-03-08T20:09:36.173Z,67.80
2023-03-08T20:12:05.967Z,67.93
2023-03-08T20:14:35.045Z,67.84
2023-03-08T20:17:05.096Z,67.82
2023-03-08T20:19:36.920Z,67.97
2023-03-08T20:22:05.125Z,68.09
2023-03-08T20:24:35.497Z,68.20
2023-03-08T20:27:05.362Z,68.22
2023-03-08T20:29:34.560Z,68.34
2023-03-08T20:32:03.319Z,68.21
2023-03-08T20:34:32.629Z,68.33
2023-03-08T20:37:00.563Z,68.35
2023-03-08T20:39:29.092Z,68.43
2023-03-08T20:41:58.706Z,68.61
2023-03-08T20:44:27.773Z,68.72
2023-03-08T20:46:55.813Z,68.69
2023-03-08T20:49:25.452Z,68.81
2023-03-08T20:51:54.582Z,68.71
2023-03-08T20:54:23.285Z,68.47
2023-03-08T20:56:51.297Z,68.49
2023-03-08T20:59:24.200Z,68.36
2023-03-08T21:01:55.934Z,68.48
2023-03-08T21:04:24.310Z,68.64
2023-03-08T21:06:55.068Z,68.74
2023-03-08T21:09:23.131Z,69.03
2023-03-08T21:11:52.169Z,69.13
2023-03-08T21:14:21.578Z,69.06
2023-03-08T21:16:51.785Z,68.93
2023-03-08T21:19:20.468Z,68.91
2023-03-08T21:21:48.754Z,68.91
2023-03-08T21:24:18.949Z,68.85
2023-03-08T21:26:46.914Z,68.77
2023-03-08T21:29:18.058Z,68.70
2023-03-08T21:31:50.550Z,68.76
2023-03-08T21:34:20.051Z,68.77
2023-03-08T21:36:48.174Z,68.83
2023-03-08T21:39:16.335Z,68.81
2023-03-08T21:41:46.793Z,68.97
2023-03-08T21:44:17.560Z,69.03
2023-03-08T21:46:46.684Z,69.02
2023-03-08T21:49:17.795Z,69.02
2023-03-08T21:51:45.820Z,68.76
2023-03-08T21:54:15.418Z,68.86
2023-03-08T21:56:43.518Z,68.60
2023-03-08T21:59:13.034Z,68.58
2023-03-08T22:01:41.845Z,68.51
2023-03-08T22:04:09.968Z,68.58
2023-03-08T22:06:37.977Z,68.64
2023-03-08T22:09:10.101Z,68.60
2023-03-08T22:11:38.082Z,68.65
2023-03-08T22:14:06.349Z,68.55
2023-03-08T22:16:37.977Z,68.54
2023-03-08T22:19:06.114Z,68.44
2023-03-08T22:21:34.399Z,68.50
2023-03-08T22:24:02.921Z,68.39
2023-03-08T22:26:31.624Z,68.64
2023-03-08T22:28:59.854Z,68.45
2023-03-08T22:31:29.337Z,68.50
2023-03-08T22:33:58.711Z,68.73
2023-03-08T22:36:30.013Z,68.58
2023-03-08T22:38:58.195Z,68.62
2023-03-08T22:41:26.985Z,68.58
2023-03-08T22:43:55.053Z,68.58
2023-03-08T22:46:26.003Z,68.62
2023-03-08T22:48:58.515Z,68.70
2023-03-08T22:51:28.380Z,68.97
2023-03-08T22:53:56.777Z,69.27
2023-03-08T22:56:29.591Z,69.59
2023-03-08T22:58:57.879Z,69.88
2023-03-08T23:01:26.580Z,70.03
2023-03-08T23:03:56.843Z,70.02
2023-03-08T23:06:28.148Z,69.94
2023-03-08T23:08:57.206Z,70.15
2023-03-08T23:11:29.911Z,70.09
2023-03-08T23:13:58.111Z,70.08
2023-03-08T23:16:26.280Z,69.96
2023-03-08T23:18:54.566Z,69.92
2023-03-08T23:21:23.759Z,69.85
2023-03-08T23:23:52.382Z,70.11
2023-03-08T23:26:21.376Z,70.10
2023-03-08T23:28:49.587Z,70.04
2023-03-08T23:31:20.366Z,69.91
2023-03-08T23:33:49.102Z,69.85
2023-03-08T23:36:18.485Z,69.78
2023-03-08T23:38:46.504Z,69.60
2023-03-08T23:41:14.862Z,69.54
2023-03-08T23:43:43.030Z,69.48
2023-03-08T23:46:20.129Z,69.38
2023-03-08T23:48:48.343Z,69.46
2023-03-08T23:51:18.264Z,69.24
2023-03-08T23:53:53.824Z,69.23
2023-03-08T23:56:31.046Z,69.10
2023-03-08T23:59:01.370Z,69.18
